YBTL METAR and TAF | Updated Today

YBTL METAR

Townsville Airport

Observation time: 19 min. ago

YBTL 291100Z AUTO 26003KT 9999 // NCD 20/15 Q1011

Need help? Read our tutorial on how to read METARs or read the parsed version below.

Townsville Airport (YBTL) METAR

  • Weather conditions on Sun, 29 May 2022 11:00:00 +0000 (19 min. ago):
  • Present conditions: Dry
  • Clouds: Nil cloud detected
  • Visibility: Greater than 10 km
  • Wind: 260 degrees at 3 knots
  • Temperature: 20 celsius
  • Dew point: 15 celsius
  • Pressure: 1011 millibars
  • Remarks: None


Useful to know...

YBTL TAF

Townsville Airport

TAF YBTL 290503Z 2906/3006 36009KT CAVOK FM290900 24004KT 9999 SCT020 FM300000 35012KT 9999 FEW025
Observation time: 6:16 hr. ago
Need help? Read our tutorial on how to read TAFs or read the parsed version below.

Parsed version of TAF for Townsville Airport (YBTL)

  • From 29 May at 06:00 UTC, to day 30 of the month at 06:00 UTC
  • Visibility: Greater than 10 km
  • Wind: 360 degrees at 9
  • From day 29 of the month at 09:00 UTC
  • Clouds: Scattered at 610 meters
  • Visibility: Greater than 10 km
  • Wind: 240 degrees at 4
  • From day 30 of the month at 00:00 UTC
  • Clouds: A few at 762 meters
  • Visibility: Greater than 10 km
  • Wind: 350 degrees at 12

Airports near YBTL

No airports found within 100nm radius.